createdAt,value
2019-04-14T00:00:38.372Z,16.47
2019-04-14T00:03:12.982Z,12.90
2019-04-14T00:05:47.266Z,17.55
2019-04-14T00:08:22.129Z,11.17
2019-04-14T00:10:57.276Z,24.70
2019-04-14T00:13:31.194Z,24.43
2019-04-14T00:16:05.338Z,13.58
2019-04-14T00:18:40.395Z,9.00
2019-04-14T00:21:15.072Z,12.97
2019-04-14T00:23:50.212Z,10.63
2019-04-14T00:26:37.831Z,20.32
2019-04-14T00:29:15.198Z,12.30
2019-04-14T00:31:52.185Z,7.57
2019-04-14T00:34:28.798Z,23.85
2019-04-14T00:37:03.425Z,17.23
2019-04-14T00:39:38.325Z,15.10
2019-04-14T00:42:12.667Z,17.15
2019-04-14T00:44:47.362Z,16.23
2019-04-14T00:47:22.242Z,23.97
2019-04-14T00:49:57.179Z,20.07
2019-04-14T00:52:31.874Z,14.73
2019-04-14T00:55:07.452Z,15.78
2019-04-14T00:57:41.974Z,13.30
2019-04-14T01:00:18.792Z,10.83
2019-04-14T01:02:53.615Z,14.47
2019-04-14T01:05:28.655Z,14.27
2019-04-14T01:08:07.355Z,13.18
2019-04-14T01:10:43.315Z,21.37
2019-04-14T01:13:18.104Z,10.30
2019-04-14T01:16:00.513Z,15.23
2019-04-14T01:18:29.828Z,13.60
2019-04-14T01:21:07.064Z,12.13
2019-04-14T01:23:43.522Z,11.87
2019-04-14T01:26:20.282Z,13.90
2019-04-14T01:28:55.456Z,18.23
2019-04-14T01:31:29.884Z,17.07
2019-04-14T01:34:04.788Z,9.80
2019-04-14T01:36:43.099Z,9.10
2019-04-14T01:39:19.655Z,16.33
2019-04-14T01:41:56.539Z,18.80
2019-04-14T01:44:31.441Z,23.47
2019-04-14T01:47:09.444Z,11.43
2019-04-14T01:49:44.370Z,10.30
2019-04-14T01:52:18.849Z,9.80
2019-04-14T01:54:53.774Z,7.57
2019-04-14T01:57:28.503Z,8.83
2019-04-14T02:00:03.264Z,8.30
2019-04-14T02:02:37.870Z,12.23
2019-04-14T02:05:14.564Z,10.10
2019-04-14T02:07:49.422Z,7.27
2019-04-14T02:10:23.860Z,14.77
2019-04-14T02:12:58.474Z,18.87
2019-04-14T02:15:33.062Z,13.93
2019-04-14T02:18:07.827Z,15.50
2019-04-14T02:20:44.597Z,10.20
2019-04-14T02:23:19.234Z,11.63
2019-04-14T02:25:53.936Z,9.20
2019-04-14T02:28:30.929Z,7.20
2019-04-14T02:31:17.674Z,11.53
2019-04-14T02:34:07.780Z,7.80
2019-04-14T02:39:26.796Z,16.93
2019-04-14T02:42:17.423Z,7.40
2019-04-14T02:47:26.843Z,16.33
2019-04-14T02:49:51.164Z,16.80
2019-04-14T02:55:05.262Z,17.00
2019-04-14T02:57:47.581Z,18.20
2019-04-14T03:00:24.209Z,10.87
2019-04-14T03:03:05.901Z,10.75
2019-04-14T03:05:37.599Z,11.03
2019-04-14T03:08:11.237Z,13.60
2019-04-14T03:13:27.125Z,12.03
2019-04-14T03:15:55.106Z,9.87
2019-04-14T03:18:44.850Z,12.43
2019-04-14T03:21:15.553Z,13.87
2019-04-14T03:26:21.235Z,13.73
2019-04-14T03:28:51.555Z,13.73
2019-04-14T03:31:51.914Z,20.72
2019-04-14T03:39:29.202Z,24.80
2019-04-14T03:41:56.588Z,10.30
2019-04-14T03:52:29.829Z,9.57
2019-04-14T03:54:52.694Z,10.68
2019-04-14T03:57:06.301Z,13.97
2019-04-14T03:59:41.304Z,9.57
2019-04-14T04:02:18.247Z,16.93
2019-04-14T04:04:56.066Z,6.85
2019-04-14T04:07:32.190Z,16.13
2019-04-14T04:10:09.237Z,8.90
2019-04-14T04:12:46.439Z,20.20
2019-04-14T04:15:21.331Z,10.20
2019-04-14T04:17:55.870Z,13.27
2019-04-14T04:20:30.640Z,8.47
2019-04-14T04:23:05.602Z,9.87
2019-04-14T04:25:39.989Z,8.03
2019-04-14T04:28:16.713Z,9.07
2019-04-14T04:30:53.640Z,9.53
2019-04-14T04:33:28.939Z,18.30
2019-04-14T04:36:03.307Z,12.63
2019-04-14T04:38:37.735Z,19.20
2019-04-14T04:41:12.422Z,18.03
2019-04-14T04:43:47.323Z,7.20
2019-04-14T04:46:22.035Z,13.85
2019-04-14T04:49:04.502Z,11.75
2019-04-14T04:51:31.359Z,13.50
2019-04-14T04:54:05.888Z,11.77
2019-04-14T04:56:40.537Z,10.37
2019-04-14T04:59:14.899Z,34.37
2019-04-14T05:01:51.488Z,15.77
2019-04-14T05:04:30.900Z,21.10
2019-04-14T05:07:07.854Z,11.37
2019-04-14T05:09:42.727Z,20.97
2019-04-14T05:12:17.424Z,19.73
2019-04-14T05:14:55.130Z,12.65
2019-04-14T05:17:29.890Z,13.03
2019-04-14T05:20:03.670Z,18.32
2019-04-14T05:22:39.802Z,20.83
2019-04-14T05:25:14.651Z,23.50
2019-04-14T05:27:51.512Z,11.70
2019-04-14T05:30:26.352Z,13.63
2019-04-14T05:33:00.912Z,15.27
2019-04-14T05:35:35.836Z,19.53
2019-04-14T05:38:10.488Z,23.38
2019-04-14T05:40:45.058Z,16.27
2019-04-14T05:43:30.439Z,12.40
2019-04-14T05:45:56.655Z,15.90
2019-04-14T05:48:33.788Z,21.55
2019-04-14T05:51:08.595Z,12.73
2019-04-14T05:53:43.801Z,24.50
2019-04-14T05:56:18.631Z,16.97
2019-04-14T05:58:55.695Z,13.30
2019-04-14T06:01:36.544Z,11.47
2019-04-14T06:04:13.655Z,14.83
2019-04-14T06:06:53.661Z,22.40
2019-04-14T06:09:28.983Z,14.03
2019-04-14T06:12:06.088Z,12.50
2019-04-14T06:14:43.360Z,17.70
2019-04-14T06:17:18.616Z,18.53
2019-04-14T06:19:54.961Z,19.97
2019-04-14T06:22:36.370Z,9.23
2019-04-14T06:25:11.304Z,10.43
2019-04-14T06:27:47.955Z,12.87
2019-04-14T06:30:22.852Z,11.38
2019-04-14T06:33:03.670Z,21.27
2019-04-14T06:35:38.824Z,9.17
2019-04-14T06:38:13.677Z,17.17
2019-04-14T06:40:48.900Z,17.37
2019-04-14T06:43:25.240Z,13.57
2019-04-14T06:46:01.043Z,8.80
2019-04-14T06:48:37.483Z,15.13
2019-04-14T06:51:13.836Z,14.47
2019-04-14T06:53:50.335Z,17.07
2019-04-14T06:56:26.940Z,20.43
2019-04-14T06:59:01.377Z,13.25
2019-04-14T07:01:38.905Z,14.87
2019-04-14T07:04:13.508Z,10.50
2019-04-14T07:06:53.777Z,19.73
2019-04-14T07:09:29.158Z,10.77
2019-04-14T07:12:03.740Z,18.40
2019-04-14T07:14:39.058Z,8.90
2019-04-14T07:17:13.363Z,14.97
2019-04-14T07:20:02.018Z,15.25
2019-04-14T07:22:29.393Z,24.13
2019-04-14T07:25:03.211Z,16.17
2019-04-14T07:27:38.045Z,20.37
2019-04-14T07:30:12.096Z,15.57
2019-04-14T07:32:48.906Z,9.83
2019-04-14T07:35:22.580Z,15.77
2019-04-14T07:37:58.311Z,18.43
2019-04-14T07:40:32.185Z,27.27
2019-04-14T07:43:11.961Z,14.13
2019-04-14T07:45:47.296Z,21.37
2019-04-14T07:48:24.018Z,11.57
2019-04-14T07:50:59.900Z,20.70
2019-04-14T07:53:33.668Z,16.77
2019-04-14T07:56:08.268Z,17.07
2019-04-14T07:58:42.956Z,16.70
2019-04-14T08:01:17.181Z,11.40
2019-04-14T08:03:51.983Z,14.30
2019-04-14T08:06:26.231Z,17.73
2019-04-14T08:09:00.352Z,14.83
2019-04-14T08:11:35.341Z,11.53
2019-04-14T08:14:09.728Z,18.80
2019-04-14T08:16:43.780Z,16.50
2019-04-14T08:19:18.098Z,33.33
2019-04-14T08:21:55.115Z,19.40
2019-04-14T08:24:31.925Z,17.67
2019-04-14T08:27:07.784Z,16.77
2019-04-14T08:29:41.959Z,16.70
2019-04-14T08:32:16.040Z,13.90
2019-04-14T08:34:51.653Z,15.87
2019-04-14T08:37:30.390Z,21.03
2019-04-14T08:40:06.199Z,21.07
2019-04-14T08:42:40.927Z,16.43
2019-04-14T08:45:15.215Z,20.90
2019-04-14T08:47:52.566Z,13.47
2019-04-14T08:50:38.697Z,16.50
2019-04-14T08:53:04.205Z,21.90
2019-04-14T08:55:38.357Z,15.47
2019-04-14T08:58:12.495Z,17.25
2019-04-14T09:00:46.818Z,17.00
2019-04-14T09:03:23.312Z,33.70
2019-04-14T09:05:57.696Z,18.37
2019-04-14T09:08:33.391Z,27.37
2019-04-14T09:11:09.313Z,18.35
2019-04-14T09:13:44.071Z,19.37
2019-04-14T09:16:20.180Z,27.33
2019-04-14T09:19:06.887Z,25.48
2019-04-14T09:21:31.828Z,24.20
2019-04-14T09:24:05.919Z,14.83
2019-04-14T09:26:40.213Z,20.23
2019-04-14T09:29:14.451Z,16.87
2019-04-14T09:31:48.724Z,21.33
2019-04-14T09:34:23.068Z,25.47
2019-04-14T09:36:57.201Z,25.73
2019-04-14T09:39:31.677Z,15.40
2019-04-14T09:42:06.141Z,20.13
2019-04-14T09:44:42.299Z,22.25
2019-04-14T09:47:16.489Z,20.67
2019-04-14T09:49:51.762Z,25.17
2019-04-14T09:52:25.879Z,23.53
2019-04-14T09:55:00.289Z,27.20
2019-04-14T09:57:35.946Z,21.37
2019-04-14T10:03:00.621Z,22.17
2019-04-14T10:05:35.614Z,14.43
2019-04-14T10:08:09.928Z,14.10
2019-04-14T10:10:45.684Z,19.30
2019-04-14T10:13:20.451Z,24.97
2019-04-14T10:15:55.462Z,23.73
2019-04-14T10:18:29.352Z,19.00
2019-04-14T10:21:03.703Z,19.75
2019-04-14T10:23:39.400Z,23.03
2019-04-14T10:26:13.334Z,21.62
2019-04-14T10:28:47.563Z,21.43
2019-04-14T10:31:21.960Z,18.32
2019-04-14T10:33:57.014Z,20.70
2019-04-14T10:36:35.905Z,25.97
2019-04-14T10:39:10.316Z,22.25
2019-04-14T10:41:43.978Z,20.50
2019-04-14T10:44:18.533Z,22.23
2019-04-14T10:46:59.972Z,29.77
2019-04-14T10:49:35.288Z,39.20
2019-04-14T10:52:10.640Z,32.58
2019-04-14T10:54:47.100Z,28.07
2019-04-14T10:57:21.952Z,29.33
2019-04-14T10:59:56.963Z,38.33
2019-04-14T11:02:32.119Z,30.40
2019-04-14T11:05:07.751Z,22.30
2019-04-14T11:07:44.574Z,26.37
2019-04-14T11:10:19.121Z,25.03
2019-04-14T11:12:54.305Z,25.10
2019-04-14T11:18:19.301Z,30.67
2019-04-14T11:20:53.787Z,25.40
2019-04-14T11:23:30.533Z,30.07
2019-04-14T11:26:05.869Z,29.87
2019-04-14T11:28:42.623Z,36.28
2019-04-14T11:31:17.150Z,25.97
2019-04-14T11:33:51.748Z,37.10
2019-04-14T11:36:29.375Z,37.35
2019-04-14T11:39:04.273Z,32.98
2019-04-14T11:41:39.241Z,29.67
2019-04-14T11:44:15.305Z,29.30
2019-04-14T11:46:51.766Z,39.57
2019-04-14T11:49:27.748Z,30.80
2019-04-14T11:52:04.184Z,36.90
2019-04-14T11:54:41.443Z,38.73
2019-04-14T11:57:16.078Z,33.33
2019-04-14T11:59:51.028Z,32.63
2019-04-14T12:05:17.955Z,26.00
2019-04-14T12:07:53.142Z,27.40
2019-04-14T12:10:28.643Z,27.93
2019-04-14T12:13:03.675Z,30.88
2019-04-14T12:15:42.161Z,25.62
2019-04-14T12:18:22.506Z,24.33
2019-04-14T12:20:58.488Z,30.57
2019-04-14T12:23:36.511Z,24.93
2019-04-14T12:26:13.300Z,36.15
2019-04-14T12:29:09.602Z,32.45
2019-04-14T12:31:46.958Z,31.05
2019-04-14T12:34:24.506Z,44.10
2019-04-14T12:37:04.948Z,32.65
2019-04-14T12:39:43.332Z,34.43
2019-04-14T12:42:19.645Z,31.60
2019-04-14T12:44:55.228Z,33.13
2019-04-14T12:47:39.554Z,37.20
2019-04-14T12:50:09.802Z,30.43
2019-04-14T12:52:47.821Z,36.45
2019-04-14T12:55:33.467Z,37.80
2019-04-14T12:58:11.296Z,41.10
2019-04-14T13:00:47.626Z,46.10
2019-04-14T13:03:24.246Z,35.27
2019-04-14T13:06:00.213Z,40.83
2019-04-14T13:08:39.838Z,45.67
2019-04-14T13:11:17.533Z,36.43
2019-04-14T13:13:54.842Z,32.20
2019-04-14T13:16:32.162Z,44.77
2019-04-14T13:19:09.498Z,41.13
2019-04-14T13:21:44.837Z,39.47
2019-04-14T13:24:22.145Z,40.03
2019-04-14T13:26:57.507Z,37.13
2019-04-14T13:29:33.462Z,46.13
2019-04-14T13:32:09.947Z,38.20
2019-04-14T13:34:45.482Z,41.53
2019-04-14T13:37:22.581Z,33.60
2019-04-14T13:40:00.674Z,46.85
2019-04-14T13:42:36.033Z,42.47
2019-04-14T13:45:16.048Z,51.30
2019-04-14T13:47:52.018Z,47.00
2019-04-14T13:50:29.686Z,55.63
2019-04-14T13:53:07.530Z,48.10
2019-04-14T13:55:43.064Z,51.70
2019-04-14T13:58:20.364Z,40.03
2019-04-14T14:00:56.697Z,40.60
2019-04-14T14:03:32.942Z,37.13
2019-04-14T14:06:08.267Z,47.50
2019-04-14T14:08:43.511Z,46.60
2019-04-14T14:11:19.937Z,46.13
2019-04-14T14:13:55.104Z,42.67
2019-04-14T14:16:32.112Z,35.73
2019-04-14T14:19:07.297Z,44.30
2019-04-14T14:21:42.133Z,38.40
2019-04-14T14:24:16.347Z,41.80
2019-04-14T14:26:50.113Z,36.90
2019-04-14T14:29:24.428Z,52.60
2019-04-14T14:32:03.143Z,33.67
2019-04-14T14:34:39.566Z,41.90
2019-04-14T14:37:14.181Z,51.80
2019-04-14T14:39:49.599Z,29.00
2019-04-14T14:42:23.493Z,35.17
2019-04-14T14:44:58.555Z,49.07
2019-04-14T14:47:33.739Z,35.03
2019-04-14T14:50:10.129Z,31.03
2019-04-14T14:52:44.134Z,40.73
2019-04-14T14:55:18.002Z,26.77
2019-04-14T14:57:51.591Z,35.33
2019-04-14T15:00:25.354Z,25.30
2019-04-14T15:02:58.748Z,39.40
2019-04-14T15:05:32.713Z,32.60
2019-04-14T15:08:06.424Z,32.83
2019-04-14T15:10:40.079Z,38.83
2019-04-14T15:13:15.325Z,24.10
2019-04-14T15:15:49.348Z,31.53
2019-04-14T15:18:23.086Z,27.47
2019-04-14T15:20:57.879Z,30.37
2019-04-14T15:23:31.577Z,23.10
2019-04-14T15:26:06.558Z,22.57
2019-04-14T15:28:40.304Z,29.50
2019-04-14T15:31:15.575Z,32.78
2019-04-14T15:33:49.217Z,27.57
2019-04-14T15:36:22.923Z,34.73
2019-04-14T15:38:57.434Z,25.25
2019-04-14T15:41:31.108Z,24.07
2019-04-14T15:44:04.799Z,24.07
2019-04-14T15:46:38.712Z,41.33
2019-04-14T15:49:12.409Z,34.27
2019-04-14T15:51:47.670Z,41.27
2019-04-14T15:54:21.169Z,32.67
2019-04-14T15:56:55.006Z,29.53
2019-04-14T15:59:29.585Z,19.53
2019-04-14T16:02:03.512Z,24.70
2019-04-14T16:04:37.479Z,20.70
2019-04-14T16:07:11.389Z,17.57
2019-04-14T16:09:46.393Z,23.35
2019-04-14T16:12:19.919Z,32.75
2019-04-14T16:14:53.854Z,17.73
2019-04-14T16:17:27.190Z,19.07
2019-04-14T16:20:01.142Z,22.23
2019-04-14T16:22:38.843Z,19.70
2019-04-14T16:25:12.446Z,19.63
2019-04-14T16:27:46.364Z,20.53
2019-04-14T16:30:20.083Z,22.73
2019-04-14T16:32:53.504Z,18.13
2019-04-14T16:35:27.199Z,15.50
2019-04-14T16:38:00.794Z,24.43
2019-04-14T16:40:34.856Z,20.97
2019-04-14T16:43:10.024Z,16.40
2019-04-14T16:45:43.856Z,27.07
2019-04-14T16:48:19.139Z,16.90
2019-04-14T16:50:53.028Z,13.13
2019-04-14T16:53:27.239Z,24.43
2019-04-14T16:56:00.622Z,14.80
2019-04-14T16:58:34.993Z,13.28
2019-04-14T17:01:09.135Z,16.20
2019-04-14T17:03:43.270Z,15.60
2019-04-14T17:06:17.091Z,13.00
2019-04-14T17:08:50.759Z,18.83
2019-04-14T17:11:24.406Z,13.97
2019-04-14T17:13:57.859Z,21.10
2019-04-14T17:16:31.322Z,16.77
2019-04-14T17:19:04.898Z,11.37
2019-04-14T17:21:38.654Z,18.62
2019-04-14T17:24:16.726Z,21.40
2019-04-14T17:26:47.195Z,15.23
2019-04-14T17:29:21.777Z,21.67
2019-04-14T17:31:55.386Z,21.35
2019-04-14T17:34:30.616Z,25.40
2019-04-14T17:37:05.609Z,23.57
2019-04-14T17:39:40.873Z,14.63
2019-04-14T17:42:14.304Z,26.73
2019-04-14T17:44:47.946Z,18.10
2019-04-14T17:47:21.630Z,22.57
2019-04-14T17:49:55.277Z,14.50
2019-04-14T17:52:28.439Z,20.60
2019-04-14T17:55:02.036Z,25.50
2019-04-14T17:57:35.805Z,23.27
2019-04-14T18:00:11.406Z,33.23
2019-04-14T18:02:45.091Z,27.17
2019-04-14T18:05:18.625Z,21.17
2019-04-14T18:07:52.374Z,21.00
2019-04-14T18:10:26.184Z,20.57
2019-04-14T18:12:59.666Z,17.77
2019-04-14T18:15:33.368Z,24.47
2019-04-14T18:18:08.516Z,20.82
2019-04-14T18:20:42.132Z,22.40
2019-04-14T18:23:15.931Z,27.23
2019-04-14T18:25:51.414Z,33.53
2019-04-14T18:28:24.729Z,17.83
2019-04-14T18:30:58.264Z,28.80
2019-04-14T18:33:32.345Z,25.90
2019-04-14T18:36:07.606Z,27.73
2019-04-14T18:38:41.408Z,33.25
2019-04-14T18:41:16.989Z,22.33
2019-04-14T18:43:50.525Z,26.50
2019-04-14T18:46:24.499Z,28.10
2019-04-14T18:48:58.500Z,20.32
2019-04-14T18:51:31.897Z,35.30
2019-04-14T18:54:05.685Z,27.40
2019-04-14T18:56:39.509Z,28.67
2019-04-14T18:59:13.442Z,25.90
2019-04-14T19:01:50.127Z,29.70
2019-04-14T19:04:23.652Z,34.80
2019-04-14T19:06:57.228Z,24.63
2019-04-14T19:09:30.807Z,29.07
2019-04-14T19:12:04.581Z,22.60
2019-04-14T19:14:38.367Z,29.20
2019-04-14T19:17:23.712Z,22.93
2019-04-14T19:20:01.914Z,28.77
2019-04-14T19:22:32.277Z,34.17
2019-04-14T19:25:08.423Z,27.17
2019-04-14T19:27:41.630Z,31.10
2019-04-14T19:30:21.465Z,25.13
2019-04-14T19:32:57.303Z,27.87
2019-04-14T19:35:30.977Z,26.60
2019-04-14T19:38:04.662Z,41.00
2019-04-14T19:40:45.506Z,38.90
2019-04-14T19:43:23.884Z,25.37
2019-04-14T19:45:56.338Z,33.23
2019-04-14T19:48:30.844Z,25.72
2019-04-14T19:51:04.725Z,30.52
2019-04-14T19:53:38.202Z,31.20
2019-04-14T19:56:13.318Z,29.93
2019-04-14T19:58:47.022Z,38.50
2019-04-14T20:01:20.697Z,28.80
2019-04-14T20:03:55.503Z,32.33
2019-04-14T20:06:29.789Z,33.83
2019-04-14T20:09:03.160Z,22.27
2019-04-14T20:11:36.695Z,24.77
2019-04-14T20:14:10.218Z,19.33
2019-04-14T20:16:43.905Z,25.48
2019-04-14T20:19:17.394Z,22.13
2019-04-14T20:21:51.087Z,22.90
2019-04-14T20:24:24.967Z,26.20
2019-04-14T20:26:58.579Z,23.13
2019-04-14T20:29:32.152Z,29.50
2019-04-14T20:32:05.962Z,30.97
2019-04-14T20:34:39.486Z,23.83
2019-04-14T20:37:13.342Z,18.63
2019-04-14T20:39:47.080Z,15.70
2019-04-14T20:42:20.755Z,18.83
2019-04-14T20:44:54.310Z,17.23
2019-04-14T20:47:28.050Z,23.40
2019-04-14T20:50:01.693Z,27.27
2019-04-14T20:52:35.300Z,28.00
2019-04-14T20:55:09.854Z,18.57
2019-04-14T20:57:43.399Z,23.73
2019-04-14T21:00:20.553Z,23.57
2019-04-14T21:02:52.222Z,19.50
2019-04-14T21:05:26.269Z,19.47
2019-04-14T21:07:59.919Z,22.13
2019-04-14T21:10:36.962Z,17.60
2019-04-14T21:13:10.734Z,27.63
2019-04-14T21:15:44.430Z,29.57
2019-04-14T21:18:17.968Z,21.27
2019-04-14T21:20:51.660Z,17.80
2019-04-14T21:23:25.324Z,29.53
2019-04-14T21:26:01.320Z,22.13
2019-04-14T21:28:35.277Z,30.20
2019-04-14T21:31:08.957Z,17.00
2019-04-14T21:33:42.819Z,18.82
2019-04-14T21:36:16.652Z,23.07
2019-04-14T21:38:50.153Z,35.60
2019-04-14T21:41:24.110Z,26.87
2019-04-14T21:43:59.393Z,28.83
2019-04-14T21:46:33.100Z,25.87
2019-04-14T21:49:06.655Z,24.77
2019-04-14T21:51:42.248Z,28.37
2019-04-14T21:54:16.247Z,25.07
2019-04-14T21:56:50.206Z,30.73
2019-04-14T21:59:24.051Z,24.10
2019-04-14T22:01:58.060Z,34.87
2019-04-14T22:04:31.393Z,21.43
2019-04-14T22:07:04.851Z,27.48
2019-04-14T22:09:38.392Z,23.10
2019-04-14T22:12:11.966Z,29.10
2019-04-14T22:14:45.652Z,30.57
2019-04-14T22:17:19.355Z,35.30
2019-04-14T22:19:53.245Z,25.60
2019-04-14T22:22:26.859Z,27.60
2019-04-14T22:25:01.320Z,21.25
2019-04-14T22:27:35.288Z,33.28
2019-04-14T22:30:10.717Z,42.33
2019-04-14T22:32:46.617Z,36.23
2019-04-14T22:35:20.353Z,26.57
2019-04-14T22:37:54.330Z,26.97
2019-04-14T22:40:28.151Z,33.23
2019-04-14T22:43:01.389Z,33.57
2019-04-14T22:45:35.167Z,31.50
2019-04-14T22:48:10.153Z,30.33
2019-04-14T22:50:43.801Z,29.03
2019-04-14T22:53:17.711Z,35.90
2019-04-14T22:55:53.538Z,36.50
2019-04-14T22:58:28.436Z,40.90
2019-04-14T23:01:02.465Z,33.30
2019-04-14T23:03:36.437Z,30.57
2019-04-14T23:06:10.208Z,44.17
2019-04-14T23:08:44.035Z,29.77
2019-04-14T23:11:17.571Z,36.80
2019-04-14T23:13:51.092Z,38.03
2019-04-14T23:16:26.035Z,50.97
2019-04-14T23:18:59.826Z,38.80
2019-04-14T23:21:33.236Z,33.53
2019-04-14T23:24:06.645Z,30.33
2019-04-14T23:26:51.753Z,48.40
2019-04-14T23:29:16.145Z,40.17
2019-04-14T23:31:49.849Z,38.83
2019-04-14T23:34:25.526Z,32.20
2019-04-14T23:36:59.221Z,44.70
2019-04-14T23:39:33.138Z,44.33
2019-04-14T23:42:06.646Z,56.27
2019-04-14T23:44:40.373Z,39.90
2019-04-14T23:47:13.633Z,35.95
2019-04-14T23:49:47.650Z,46.00
2019-04-14T23:52:21.175Z,35.10
2019-04-14T23:54:54.836Z,37.83
2019-04-14T23:57:28.472Z,35.63
